Data for 03/07/2010

Time Sea-Level Adjusted Pressure Absolute Pressure Temperature Relative Humidity Dew Point   
(mb) (inHg) (mb) (inHg) (C) (F) (%) (C) (F)
00:05 1015 29.97 844 24.92 3.2 37.7 71 -1.7 29
00:10 1015 29.97 844 24.92 3.1 37.6 71 -1.6 29.1
00:15 1015 29.97 844 24.92 3 37.5 72 -1.6 29.1
00:20 1015 29.97 844 24.92 3.1 37.5 72 -1.6 29.2
00:25 1015 29.97 844 24.92 3 37.4 72 -1.6 29.1
00:30 1015 29.97 844 24.92 2.9 37.3 72 -1.6 29.2
00:35 1015 29.97 844 24.92 2.9 37.2 73 -1.5 29.2
00:40 1014 29.94 844 24.92 2.9 37.3 72 -1.6 29.2
00:45 1014 29.94 844 24.92 2.9 37.3 73 -1.5 29.3
00:50 1014 29.94 844 24.92 3 37.5 72 -1.5 29.4
00:55 1014 29.94 844 24.92 3 37.5 73 -1.4 29.5
01:00 1014 29.94 844 24.92 2.9 37.2 73 -1.4 29.5
01:05 1014 29.94 844 24.92 2.8 37.1 73 -1.5 29.3
01:10 1014 29.94 844 24.92 2.9 37.2 73 -1.4 29.4
01:15 1014 29.94 844 24.92 2.9 37.2 73 -1.4 29.4
01:20 1014 29.94 844 24.92 2.9 37.1 73 -1.4 29.4
01:25 1014 29.94 844 24.92 2.8 37 74 -1.5 29.4
01:30 1014 29.94 843 24.89 2.8 37 73 -1.6 29.1
01:35 1014 29.94 843 24.89 2.8 37 73 -1.6 29.1
01:40 1014 29.94 843 24.89 2.7 36.9 73 -1.7 29
01:45 1014 29.94 843 24.89 2.6 36.8 73 -1.7 29
01:50 1014 29.94 843 24.89 2.5 36.5 74 -1.8 28.8
01:55 1014 29.94 843 24.89 2.4 36.2 74 -1.7 28.9
02:00 1014 29.94 843 24.89 2.3 36.1 74 -1.9 28.6
02:05 1014 29.94 843 24.89 1.9 35.4 75 -2 28.3
02:10 1014 29.94 843 24.89 1.6 35 76 -2.2 28.1
02:15 1014 29.94 843 24.89 1.7 35.1 76 -2.1 28.3
02:20 1014 29.94 843 24.89 1.7 35 76 -2 28.3
02:25 1014 29.94 843 24.89 1.5 34.6 75 -2.5 27.4
02:30 1014 29.94 843 24.89 1.4 34.5 76 -2.4 27.8
02:35 1014 29.94 843 24.89 1.4 34.5 75 -2.6 27.3
02:40 1014 29.94 843 24.89 1.6 34.8 74 -2.6 27.3
02:45 1014 29.94 843 24.89 1.7 35 73 -2.6 27.3
02:50 1014 29.94 843 24.89 1.6 35 72 -2.9 26.8
02:55 1014 29.94 843 24.89 1.6 34.8 70 -3.2 26.2
03:00 1014 29.94 843 24.89 1.4 34.6 69 -3.7 25.4
03:05 1014 29.94 843 24.89 1 33.9 69 -3.9 24.9
03:10 1014 29.94 843 24.89 0.6 33.1 69 -4.5 23.9
03:15 1014 29.94 843 24.89 1 33.7 70 -3.9 25
03:20 1014 29.94 843 24.89 1.3 34.3 68 -4 24.7
03:25 1014 29.94 843 24.89 1.3 34.3 68 -4 24.8
03:30 1014 29.94 843 24.89 1.2 34.1 69 -3.9 25
03:35 1014 29.94 843 24.89 1 33.7 70 -3.8 25.1
03:40 1014 29.94 843 24.89 0.7 33.2 71 -4 24.8
03:45 1013 29.91 843 24.89 0.8 33.5 70 -4 24.8
03:50 1013 29.91 843 24.89 1 33.9 69 -3.9 24.9
03:55 1013 29.91 843 24.89 1 33.9 70 -3.8 25.1
04:00 1013 29.91 842 24.86 0.8 33.5 71 -3.8 25.1
04:05 1013 29.91 842 24.86 0.7 33.3 73 -3.5 25.7
04:10 1013 29.91 842 24.86 0.7 33.3 73 -3.6 25.6
04:15 1013 29.91 842 24.86 0.7 33.2 75 -3.3 26.1
04:20 1013 29.91 842 24.86 0.8 33.4 73 -3.4 25.8
04:25 1013 29.91 842 24.86 0.3 32.6 75 -3.7 25.4
04:30 1013 29.91 842 24.86 0 32 76 -3.7 25.4
04:35 1013 29.91 842 24.86 0.1 32.3 76 -3.6 25.5
04:40 1013 29.91 842 24.86 0.1 32.2 76 -3.6 25.6
04:45 1013 29.91 842 24.86 0.3 32.5 75 -3.6 25.4
04:50 1013 29.91 842 24.86 0.3 32.5 74 -3.7 25.3
04:55 1013 29.91 842 24.86 0.3 32.5 74 -3.8 25.1
05:00 1013 29.91 842 24.86 0.3 32.6 73 -3.9 24.9
05:05 1013 29.91 842 24.86 0.5 32.9 73 -3.9 25
05:10 1013 29.91 842 24.86 0.2 32.4 73 -4.1 24.6
05:15 1013 29.91 842 24.86 0.2 32.4 72 -4.2 24.4
05:20 1013 29.91 842 24.86 0.2 32.4 72 -4.2 24.4
05:25 1013 29.91 842 24.86 0.1 32.2 72 -4.4 24.2
05:30 1013 29.91 842 24.86 0.3 32.6 71 -4.3 24.3
05:35 1013 29.91 842 24.86 0.2 32.3 72 -4.3 24.3
05:40 1013 29.91 842 24.86 0.1 32.2 72 -4.3 24.2
05:45 1013 29.91 842 24.86 -0.1 31.8 73 -4.4 24.1
05:50 1013 29.91 842 24.86 -0.1 31.8 71 -4.7 23.5
05:55 1013 29.91 842 24.86 -0.1 31.8 71 -4.8 23.3
06:00 1013 29.91 842 24.86 -0.1 31.8 71 -4.8 23.3
06:05 1013 29.91 842 24.86 0 32 69 -5 23
06:10 1013 29.91 842 24.86 0.1 32.2 70 -4.8 23.4
06:15 1013 29.91 842 24.86 -0.1 31.8 72 -4.6 23.6
06:20 1013 29.91 842 24.86 -0.3 31.5 72 -4.7 23.6
06:25 1013 29.91 842 24.86 -0.5 31.1 73 -4.8 23.4
06:30 1013 29.91 842 24.86 -0.5 31.1 73 -4.8 23.3
06:35 1012 29.88 842 24.86 -0.5 31.1 73 -4.7 23.5
06:40 1012 29.88 842 24.86 -0.6 30.9 74 -4.8 23.4
06:45 1012 29.88 842 24.86 -0.6 31 74 -4.7 23.6
06:50 1012 29.88 842 24.86 -0.6 30.9 73 -4.8 23.3
06:55 1012 29.88 842 24.86 -0.6 30.9 73 -4.9 23.1
07:00 1012 29.88 841 24.83 -0.5 31.1 71 -5.1 22.8
07:05 1012 29.88 842 24.86 -0.5 31.2 71 -5.2 22.7
07:10 1012 29.88 842 24.86 -0.3 31.5 70 -5.2 22.7
07:15 1012 29.88 842 24.86 0.1 32.2 67 -5.3 22.4
07:20 1012 29.88 842 24.86 0.1 32.2 68 -5.1 22.8
07:25 1012 29.88 841 24.83 0.2 32.4 67 -5.3 22.5
07:30 1012 29.88 841 24.83 0.1 32.1 69 -5 22.9
07:35 1012 29.88 841 24.83 -0.5 31.1 70 -5.2 22.6
07:40 1012 29.88 841 24.83 -0.6 30.8 68 -5.8 21.6
07:45 1012 29.88 841 24.83 -0.6 31 68 -5.8 21.6
07:50 1012 29.88 841 24.83 -0.4 31.2 67 -5.8 21.6
07:55 1012 29.88 841 24.83 0.1 32.2 64 -5.8 21.5
08:00 1012 29.88 841 24.83 1 33.7 62 -5.6 21.9
08:05 1012 29.88 841 24.83 1.3 34.3 61 -5.4 22.3
08:10 1012 29.88 841 24.83 1.1 33.9 63 -5.3 22.5
08:15 1012 29.88 841 24.83 0.6 33.1 64 -5.3 22.4
08:20 1012 29.88 841 24.83 0.3 32.6 65 -5.6 21.9
08:25 1012 29.88 841 24.83 0.3 32.5 64 -5.7 21.8
08:30 1012 29.88 841 24.83 0.2 32.4 64 -5.8 21.6
08:35 1012 29.88 841 24.83 0.9 33.6 60 -5.9 21.3
08:40 1012 29.88 841 24.83 1.7 35.1 59 -5.5 22
08:45 1012 29.88 841 24.83 2.4 36.3 58 -5 23.1
08:50 1012 29.88 841 24.83 2.5 36.4 59 -4.8 23.4
08:55 1012 29.88 841 24.83 2.3 36.2 61 -4.5 23.9
09:00 1012 29.88 841 24.83 2.4 36.2 61 -4.5 24
09:05 1012 29.88 841 24.83 3.3 37.9 56 -4.6 23.8
09:10 1012 29.88 841 24.83 3.6 38.4 59 -3.7 25.4
09:15 1012 29.88 841 24.83 3.9 39 56 -4 24.7
09:20 1012 29.88 841 24.83 4.4 40 59 -2.8 26.9
09:25 1012 29.88 841 24.83 4.9 40.9 53 -3.8 25.1
09:30 1012 29.88 841 24.83 4 39.3 60 -3 26.6
09:35 1012 29.88 841 24.83 3.2 37.7 60 -3.8 25.2
09:40 1012 29.88 841 24.83 3.5 38.3 58 -3.9 24.9
09:45 1012 29.88 841 24.83 3.7 38.6 59 -3.6 25.6
09:50 1012 29.88 841 24.83 4.1 39.5 57 -3.5 25.7
09:55 1012 29.88 841 24.83 4.8 40.6 56 -3.4 26
10:00 1012 29.88 841 24.83 4.7 40.4 56 -3.2 26.2
10:05 1012 29.88 841 24.83 4.4 40 54 -4.1 24.6
10:10 1012 29.88 841 24.83 4.9 40.7 55 -3.4 25.9
10:15 1012 29.88 841 24.83 4.4 39.9 58 -3.2 26.2
10:20 1012 29.88 841 24.83 4.1 39.4 58 -3.5 25.7
10:25 1012 29.88 841 24.83 4 39.2 57 -3.7 25.3
10:30 1012 29.88 841 24.83 3.9 39 58 -3.7 25.3
10:35 1012 29.88 841 24.83 3.9 39 58 -3.7 25.3
10:40 1012 29.88 841 24.83 4 39.1 57 -3.9 25
10:45 1012 29.88 841 24.83 4.6 40.3 56 -3.4 25.9
10:50 1012 29.88 841 24.83 4.7 40.5 56 -3.3 26
10:55 1012 29.88 841 24.83 5.6 42.1 53 -3.2 26.3
11:00 1012 29.88 841 24.83 6.3 43.4 51 -3.1 26.5
11:05 1012 29.88 841 24.83 6.8 44.3 49 -3 26.6
11:10 1012 29.88 841 24.83 7.2 45 48 -3 26.6
11:15 1011 29.85 841 24.83 7.5 45.5 49 -2.4 27.6
11:20 1011 29.85 841 24.83 6.7 44.1 52 -2.4 27.7
11:25 1011 29.85 841 24.83 7 44.7 48 -3.1 26.4
11:30 1011 29.85 841 24.83 7.5 45.5 49 -2.5 27.6
11:35 1011 29.85 841 24.83 7 44.6 52 -2.2 28.1
11:40 1011 29.85 840 24.81 6.4 43.5 53 -2.6 27.4
11:45 1011 29.85 840 24.81 5.5 41.8 56 -2.7 27.1
11:50 1011 29.85 840 24.81 6.1 43 52 -2.9 26.7
11:55 1011 29.85 840 24.81 7.5 45.6 48 -2.7 27.1
12:00 1011 29.85 840 24.81 7.9 46.2 47 -2.8 27
12:05 1011 29.85 840 24.81 7.2 45 50 -2.5 27.5
12:10 1011 29.85 840 24.81 6.9 44.5 49 -2.9 26.7
12:15 1011 29.85 840 24.81 7.3 45.1 50 -2.4 27.6
12:20 1010 29.83 840 24.81 7.5 45.4 51 -2.1 28.2
12:25 1010 29.83 840 24.81 7.7 45.8 49 -2.3 27.9
12:30 1010 29.83 840 24.81 7.2 45 48 -3.1 26.5
12:35 1010 29.83 839 24.78 7.4 45.3 47 -3.2 26.3
12:40 1010 29.83 839 24.78 7.3 45.1 49 -2.7 27.2
12:45 1010 29.83 839 24.78 8 46.4 48 -2.2 28.1
12:50 1010 29.83 839 24.78 8 46.4 48 -2.4 27.6
12:55 1010 29.83 839 24.78 7.6 45.6 47 -3.1 26.5
13:00 1010 29.83 839 24.78 7.1 44.9 47 -3.3 26
13:05 1010 29.83 839 24.78 8 46.4 47 -2.7 27.1
13:10 1010 29.83 839 24.78 8.1 46.5 43 -3.8 25.1
13:15 1010 29.83 839 24.78 7.8 46 45 -3.5 25.7
13:20 1010 29.83 839 24.78 8 46.4 42 -4.1 24.7
13:25 1010 29.83 839 24.78 9 48.2 41 -3.7 25.4
13:30 1009 29.8 839 24.78 8.8 47.9 43 -2.9 26.8
13:35 1009 29.8 839 24.78 9.1 48.4 42 -3 26.6
13:40 1009 29.8 838 24.75 10 50 42 -2.4 27.7
13:45 1009 29.8 838 24.75 9.7 49.4 44 -1.9 28.6
13:50 1009 29.8 838 24.75 9.5 49.2 43 -2.4 27.7
13:55 1009 29.8 838 24.75 9.5 49.1 43 -2.4 27.8
14:00 1009 29.8 838 24.75 8.4 47 49 -1.6 29.1
14:05 1009 29.8 838 24.75 6.9 44.4 50 -2.9 26.7
14:10 1009 29.8 838 24.75 7.7 45.8 47 -3 26.5
14:15 1009 29.8 838 24.75 7.9 46.2 49 -2.3 27.9
14:20 1009 29.8 838 24.75 6.8 44.2 52 -2.4 27.7
14:25 1009 29.8 838 24.75 5.9 42.7 55 -2.4 27.7
14:30 1009 29.8 838 24.75 6.2 43.1 52 -2.9 26.7
14:35 1009 29.8 838 24.75 6.3 43.4 52 -2.9 26.8
14:40 1009 29.8 838 24.75 6.2 43.1 53 -2.7 27.1
14:45 1009 29.8 838 24.75 6.2 43.2 52 -3 26.6
14:50 1008 29.77 838 24.75 6.6 43.9 51 -2.9 26.8
14:55 1008 29.77 838 24.75 7.1 44.7 51 -2.5 27.6
15:00 1008 29.77 838 24.75 7 44.6 50 -2.6 27.3
15:05 1008 29.77 838 24.75 7.6 45.6 46 -3.3 26.1
15:10 1008 29.77 837 24.72 8.8 47.8 43 -3 26.6
15:15 1008 29.77 837 24.72 9.4 48.9 42 -2.8 27
15:20 1008 29.77 837 24.72 9 48.1 44 -2.6 27.3
15:25 1008 29.77 837 24.72 8.9 48 43 -3.2 26.3
15:30 1008 29.77 837 24.72 8.8 47.9 43 -3 26.6
15:35 1008 29.77 837 24.72 9 48.3 41 -3.4 25.9
15:40 1008 29.77 837 24.72 9 48.1 43 -3.1 26.5
15:45 1008 29.77 837 24.72 9.1 48.4 41 -3.4 25.9
15:50 1008 29.77 837 24.72 8.8 47.9 41 -3.7 25.4
15:55 1008 29.77 837 24.72 9 48.3 42 -3 26.5
16:00 1008 29.77 837 24.72 8.9 48 41 -3.6 25.5
16:05 1008 29.77 837 24.72 9.3 48.7 39 -3.8 25.1
16:10 1008 29.77 837 24.72 9.6 49.2 40 -3.2 26.2
16:15 1008 29.77 837 24.72 9.7 49.5 38 -3.7 25.3
16:20 1008 29.77 837 24.72 10.1 50.1 37 -4 24.9
16:25 1008 29.77 837 24.72 10.1 50.2 38 -3.7 25.4
16:30 1008 29.77 837 24.72 10.1 50.1 37 -3.9 24.9
16:35 1008 29.77 837 24.72 9.6 49.3 39 -3.7 25.4
16:40 1008 29.77 837 24.72 9.3 48.8 39 -4 24.8
16:45 1008 29.77 837 24.72 8.9 47.9 40 -4.1 24.6
16:50 1007 29.74 837 24.72 8.2 46.7 41 -4.4 24.1
16:55 1007 29.74 837 24.72 7.9 46.2 41 -4.5 23.9
17:00 1007 29.74 837 24.72 7.8 46.1 41 -4.7 23.5
17:05 1007 29.74 837 24.72 8.4 47 40 -4.5 23.8
17:10 1007 29.74 837 24.72 8.1 46.6 40 -4.6 23.8
17:15 1007 29.74 837 24.72 8 46.5 39 -5.1 22.8
17:20 1007 29.74 837 24.72 8.1 46.6 38 -5.3 22.5
17:25 1007 29.74 837 24.72 8.6 47.4 38 -4.9 23.1
17:30 1007 29.74 837 24.72 9 48.1 36 -5.2 22.6
17:35 1007 29.74 837 24.72 9.3 48.8 35 -5.2 22.7
17:40 1007 29.74 837 24.72 8.9 48.1 36 -5.5 22.2
17:45 1007 29.74 837 24.72 8.5 47.2 36 -5.6 21.8
17:50 1008 29.77 837 24.72 8 46.4 36 -6.2 20.9
17:55 1007 29.74 837 24.72 8.2 46.8 39 -5 23
18:00 1007 29.74 837 24.72 8 46.4 38 -5.4 22.2
18:05 1008 29.77 837 24.72 8 46.3 38 -5.3 22.4
18:10 1007 29.74 837 24.72 7.6 45.7 41 -4.9 23.1
18:15 1008 29.77 837 24.72 7.4 45.2 41 -5 23.1
18:20 1008 29.77 837 24.72 7.4 45.2 42 -4.8 23.3
18:25 1008 29.77 837 24.72 7.3 45.1 41 -5.1 22.8
18:30 1008 29.77 837 24.72 7.2 45 41 -5.1 22.9
18:35 1008 29.77 837 24.72 7.1 44.7 43 -4.5 23.9
18:40 1008 29.77 837 24.72 6.8 44.2 45 -4.3 24.3
18:45 1008 29.77 837 24.72 6.3 43.3 50 -3.5 25.7
18:50 1008 29.77 837 24.72 6.1 42.9 47 -4.4 24.1
18:55 1008 29.77 837 24.72 6.3 43.3 46 -4.4 24
19:00 1008 29.77 837 24.72 5.5 42 49 -4.2 24.4
19:05 1008 29.77 837 24.72 5 41.1 49 -4.9 23.3
19:10 1008 29.77 837 24.72 5.1 41.1 50 -4.5 24
19:15 1008 29.77 837 24.72 4.7 40.5 52 -4.4 24.1
19:20 1008 29.77 837 24.72 4.4 40 54 -4.2 24.5
19:25 1008 29.77 837 24.72 4.2 39.5 55 -4.1 24.7
19:30 1008 29.77 837 24.72 3.9 39.1 55 -4.2 24.5
19:35 1008 29.77 837 24.72 4 39.2 53 -4.8 23.4
19:40 1008 29.77 837 24.72 4.3 39.8 53 -4.5 23.9
19:45 1008 29.77 837 24.72 4.3 39.8 53 -4.5 23.9
19:50 1008 29.77 837 24.72 4.1 39.4 55 -4 24.7
19:55 1008 29.77 837 24.72 3.8 38.8 54 -4.6 23.6
20:00 1008 29.77 837 24.72 4.1 39.3 48 -5.9 21.4
20:05 1008 29.77 837 24.72 4.1 39.4 52 -4.9 23.2
20:10 1008 29.77 837 24.72 3.5 38.2 53 -5.1 22.8
20:15 1008 29.77 837 24.72 3.5 38.4 51 -5.7 21.7
20:20 1008 29.77 837 24.72 3.7 38.6 53 -4.9 23.1
20:25 1008 29.77 837 24.72 3.2 37.8 53 -5.4 22.4
20:30 1008 29.77 837 24.72 3.4 38.2 54 -5.1 22.9
20:35 1008 29.77 837 24.72 3.1 37.6 54 -5.3 22.4
20:40 1008 29.77 837 24.72 3.2 37.7 53 -5.4 22.3
20:45 1008 29.77 837 24.72 3.7 38.7 52 -5.4 22.4
20:50 1008 29.77 837 24.72 3.6 38.5 51 -5.7 21.7
20:55 1008 29.77 837 24.72 3.4 38.2 50 -6 21.2
21:00 1008 29.77 837 24.72 3.3 37.9 50 -6.1 21.1
21:05 1008 29.77 837 24.72 3.3 37.9 51 -5.9 21.3
21:10 1008 29.77 837 24.72 3.4 38.1 51 -5.7 21.7
21:15 1008 29.77 837 24.72 3.3 37.9 52 -5.7 21.7
21:20 1008 29.77 837 24.72 3.1 37.5 55 -5.2 22.6
21:25 1008 29.77 837 24.72 2.6 36.6 56 -5.3 22.5
21:30 1008 29.77 837 24.72 2.2 36 58 -5.2 22.6
21:35 1008 29.77 837 24.72 2 35.6 59 -5.3 22.5
21:40 1008 29.77 837 24.72 1.9 35.5 58 -5.6 22
21:45 1008 29.77 837 24.72 2.4 36.3 55 -5.9 21.4
21:50 1008 29.77 837 24.72 2.8 37 53 -5.9 21.4
21:55 1008 29.77 837 24.72 3 37.4 53 -5.6 21.9
22:00 1008 29.77 837 24.72 3 37.3 54 -5.3 22.4
22:05 1008 29.77 837 24.72 2.7 36.8 56 -5.2 22.6
22:10 1008 29.77 837 24.72 2.5 36.5 56 -5.3 22.4
22:15 1008 29.77 837 24.72 2.4 36.3 58 -5 23
22:20 1008 29.77 837 24.72 2.3 36.1 58 -5.1 22.9
22:25 1008 29.77 837 24.72 2.3 36.1 58 -5.2 22.6
22:30 1008 29.77 837 24.72 2.4 36.3 57 -5.2 22.6
22:35 1008 29.77 837 24.72 2.6 36.8 57 -5 23
22:40 1008 29.77 837 24.72 2.6 36.8 57 -5 23
22:45 1008 29.77 837 24.72 2.6 36.7 56 -5.3 22.5
22:50 1008 29.77 837 24.72 2.6 36.7 54 -5.7 21.7
22:55 1008 29.77 837 24.72 2.9 37.3 54 -5.5 22.1
23:00 1008 29.77 837 24.72 2.8 37 54 -5.5 22.1
23:05 1008 29.77 837 24.72 2.9 37.3 53 -5.6 21.8
23:10 1008 29.77 837 24.72 2.7 36.8 56 -5.3 22.5
23:15 1008 29.77 837 24.72 2.3 36.1 57 -5.5 22.2
23:20 1008 29.77 837 24.72 2.3 36.1 57 -5.3 22.4
23:25 1008 29.77 837 24.72 2.2 36 57 -5.4 22.3
23:30 1008 29.77 837 24.72 2.3 36.2 56 -5.6 22
23:35 1008 29.77 837 24.72 2.6 36.6 54 -5.8 21.6
23:40 1008 29.77 837 24.72 2.9 37.2 53 -5.8 21.5
23:45 1008 29.77 837 24.72 3.1 37.6 51 -6.1 21.1
23:50 1008 29.77 837 24.72 3.1 37.6 52 -5.9 21.4
23:55 1008 29.77 837 24.72 2.9 37.3 52 -5.9 21.3
24:00 1008 29.77 837 24.72 2.6 36.7 53 -6.1 21.1